Weather observations for the past three days for
Spartanburg Memorial
Metric (Imperial)
Date Time (edt) Wind (kph) Vis. (km) Weather Sky Cond. Temperature (ºC) Relative Humidity Wind Chill (°C) Heat Index (°C) Pressure Precipitation (cm)
Air Dwpt 6 hour altimeter (cm) sea level (mb) 1 hr 3 hr 6 hr
Max. Min.
02 01:55 Calm 11.27 Fair CLR 24 21 83% 24 76.43 0.0
02 01:35 Calm 16.09 Fair CLR 25 21 79% 26 76.43 0.0
02 01:15 Calm 16.09 Fair CLR 24 21 83% 24 76.43 0.0
02 00:55 Calm 11.27 Fair CLR 25 21 79% 26 76.43 0.0
02 00:35 Calm 16.09 Fair CLR 24 21 83% 24 76.4 0.0
02 00:15 Calm 16.09 Fair CLR 25 21 79% 26 76.4 0.0
01 23:55 Calm 16.09 Fair CLR 25 22 83% 26 76.4 0.0
01 23:35 Calm 16.09 Fair CLR 25 22 83% 26 76.38 0.0
01 23:15 Calm 16.09 Fair CLR 25 21 79% 26 76.4 0.0
01 22:55 Calm 16.09 Fair CLR 25 22 83% 26 76.4 0.0
01 22:35 Calm 16.09 Fair CLR 25 22 83% 26 76.4 0.0
01 22:15 Calm 16.09 Fair CLR 26 22 79% 28 76.38 0.0
01 21:55 Calm 16.09 Fair CLR 26 22 79% 28 76.38 0.0
01 21:35 Calm 16.09 Fair CLR 26 22 79% 28 76.38 0.0
01 21:15 Calm 16.09 Fair CLR 26 22 79% 28 76.38 0.0
01 20:55 Calm 16.09 Fair CLR 27 23 79% 30 76.38 0.0
01 20:35 Calm 16.09 Fair CLR 27 22 74% 29 76.35 0.0
01 20:15 Calm 16.09 Fair CLR 28 22 70% 31 76.35 0.0
01 19:55 Calm 16.09 Fair CLR 28 23 74% 31 76.35 0.0
01 19:35 Calm 16.09 Fair CLR 31 21 55% 34 76.35 0.0
01 19:15 Calm 11.27 Fair CLR 32 20 49% 34 76.35 0.0
01 18:55 SE 6 16.09 Fair CLR 32 20 49% 34 76.38 0.0
01 18:30 Calm 16.09 Fair CLR 33 19 44% 35 76.35 0.0
01 18:15 Calm 16.09 Fair CLR 32 20 49% 34 76.35 0.0
01 17:55 NW 6 16.09 Fair CLR 34 18 39% 35 76.35 0.0
01 17:35 Calm 16.09 Fair CLR 34 17 36% 35 76.33 0.0
01 17:15 NW 6 16.09 Fair CLR 35 17 34% 36 76.35 0.0
01 16:55 Calm 16.09 Fair CLR 35 18 36% 36 76.35 0.0
01 16:35 NE 6 16.09 Fair CLR 35 18 36% 36 76.35 0.0
01 16:15 Calm 16.09 Fair CLR 34 18 39% 35 76.38 0.0
01 15:55 Calm 16.09 Fair CLR 35 18 36% 36 76.38 0.0
01 15:35 W 6 16.09 Fair CLR 33 18 41% 34 76.4 0.0
01 15:15 NE 9 16.09 Fair CLR 34 18 39% 35 76.43 0.0
01 14:55 Calm 16.09 Partly Cloudy SCT060 33 18 41% 34 76.43 0.0
01 14:35 Calm 16.09 Fair CLR 34 18 39% 35 76.45 0.0
01 14:15 Calm 16.09 Fair CLR 33 17 38% 33 76.45 0.0
01 13:55 N 6 16.09 Fair CLR 33 18 41% 34 76.45 0.0
01 13:35 Calm 16.09 Fair CLR 33 18 41% 34 76.48 0.0
01 13:15 NE 9 16.09 Fair CLR 33 17 38% 33 76.5 0.0
01 12:55 Calm 16.09 Fair CLR 32 19 46% 33 76.5 0.0
01 12:35 Calm 16.09 Fair CLR 32 20 49% 34 76.53 0.0
01 12:15 Calm 11.27 Fair CLR 32 20 49% 34 76.53 0.0
01 11:55 Calm 16.09 Fair CLR 31 19 49% 32 76.56 0.0
01 11:35 W 6 16.09 Fair CLR 31 20 52% 33 76.56 0.0
01 11:15 W 6 16.09 Fair CLR 31 20 52% 33 76.58 0.0
01 10:55 SW 6 16.09 Fair CLR 30 20 55% 32 76.58 0.0
01 10:35 W 6 16.09 Fair CLR 29 20 58% 31 76.58 0.0
01 10:15 SW 6 16.09 Fair CLR 28 20 62% 30 76.56 0.0
01 09:55 Calm 11.27 Fair CLR 28 21 66% 30 76.56 0.0
01 09:35 Calm 11.27 Fair CLR 27 21 70% 29 76.58 0.0
01 09:15 Calm 16.09 Fair CLR 26 21 74% 27 76.58 0.0
01 08:55 Calm 16.09 Fair CLR 25 21 79% 26 76.58 0.0
01 08:35 Calm 16.09 Fair CLR 24 21 83% 24 76.56 0.0
01 08:15 N 9 11.27 Fair CLR 23 21 89% 76.56 0.0
01 07:55 Calm 11.27 Fair CLR 22 21 94% 76.53 0.0
01 07:35 Calm 8.05 Fog/Mist CLR 21 21 100% 76.5 0.0
01 07:15 Calm 11.27 Fair CLR 21 20 94% 76.5 0.0
01 06:55 Calm 11.27 Fair CLR 21 20 94% 76.48 0.0
01 06:35 Calm 11.27 Fair CLR 21 20 94% 76.48 0.0
01 06:15 Calm 11.27 Fair CLR 21 20 94% 76.48 0.0
01 05:55 Calm 16.09 Fair CLR 21 20 94% 76.48 0.0
01 05:35 Calm 11.27 Fair CLR 21 20 94% 76.48 0.0
01 05:10 Calm 16.09 Fair CLR 22 20 88% 76.48 0.0
01 04:55 Calm 11.27 Fair CLR 22 20 88% 76.45 0.0
01 04:35 Calm 16.09 Fair CLR 22 20 88% 76.48 0.0
01 04:15 Calm 16.09 Fair CLR 23 20 83% 76.48 0.0
01 03:55 Calm 16.09 Fair CLR 23 21 89% 76.48 0.0
01 03:35 N 7 16.09 Fair CLR 22 21 94% 76.48 0.0
01 03:15 Calm 16.09 Fair CLR 22 21 94% 76.48 0.0
01 02:55 Calm 16.09 Fair CLR 22 21 94% 76.48 0.0
01 02:35 Calm 11.27 Fair CLR 22 21 94% 76.5 0.0
01 02:15 Calm 16.09 Fair CLR 23 21 89% 76.5 0.0
01 01:55 Calm 16.09 Fair CLR 23 21 89% 76.5 0.0
01 01:35 Calm 16.09 Fair CLR 22 21 94% 76.53 0.0
01 01:15 Calm 16.09 Fair CLR 22 21 94% 76.53 0.0
01 00:55 Calm 16.09 Fair CLR 22 21 94% 76.53 0.0
01 00:35 Calm 16.09 Fair CLR 22 21 94% 76.5 0.0
01 00:15 Calm 16.09 Fair CLR 23 21 89% 76.53 0.0
31 23:55 Calm 16.09 Fair CLR 23 21 89% 76.5 0.0
31 23:35 Calm 16.09 Fair CLR 24 21 83% 24 76.5 0.0
31 23:15 Calm 16.09 Fair CLR 24 21 83% 24 76.5 0.0
31 22:55 N 6 16.09 Fair CLR 24 21 83% 24 76.5 0.0
31 22:35 Calm 16.09 Fair CLR 24 21 83% 24 76.5 0.0
31 22:15 N 6 16.09 Fair CLR 24 21 83% 24 76.5 0.0
31 21:55 NE 6 16.09 Fair CLR 25 21 79% 26 76.5 0.0
31 21:35 Calm 16.09 Fair CLR 25 21 79% 26 76.48 0.0
31 21:15 Calm 16.09 Fair CLR 25 21 79% 26 76.45 0.0
31 20:55 Calm 16.09 Fair CLR 26 21 74% 27 76.45 0.0
31 20:35 N 6 16.09 Fair CLR 27 21 70% 29 76.43 0.0
31 20:15 Calm 16.09 Fair CLR 27 21 70% 29 76.43 0.0
31 19:35 Calm 16.09 Fair CLR 28 21 66% 30 76.43 0.0
31 19:15 Calm 16.09 Fair CLR 28 20 62% 30 76.43 0.0
31 18:55 N 9 16.09 Fair CLR 29 20 58% 31 76.43 0.0
31 18:35 Calm 16.09 Partly Cloudy SCT060 SCT070 SCT080 30 20 55% 32 76.4 0.0
31 18:15 Calm 16.09 Mostly Cloudy BKN060 BKN070 BKN080 31 21 55% 34 76.43 0.0
31 17:55 Calm 16.09 Partly Cloudy SCT060 31 20 52% 33 76.45 0.0
31 17:35 Calm 16.09 Fair CLR 32 19 46% 33 76.45 0.0
31 17:15 Calm 16.09 Fair CLR 33 18 41% 34 76.45 0.0
31 16:55 Calm 16.09 Fair CLR 32 18 43% 33 76.45 0.0
31 16:35 S 6 16.09 Fair CLR 32 18 43% 33 76.45 0.0
31 16:15 S 7 16.09 Partly Cloudy SCT050 32 18 43% 33 76.48 0.0
31 15:55 S 6 16.09 Fair CLR 32 18 43% 33 76.48 0.0
31 15:35 Calm 16.09 Fair CLR 32 18 43% 33 76.48 0.0
31 15:15 S 6 16.09 Fair CLR 32 19 46% 33 76.5 0.0
31 14:55 Calm 16.09 Fair CLR 32 19 46% 33 76.53 0.0
31 14:35 SE 6 16.09 Fair CLR 32 20 49% 34 76.53 0.0
31 14:15 Calm 16.09 Fair CLR 32 18 43% 33 76.56 0.0
31 13:55 N 6 16.09 Fair CLR 31 19 49% 32 76.58 0.0
31 13:35 Calm 11.27 Fair CLR 31 19 49% 32 76.61 0.0
31 13:15 Calm 16.09 Fair CLR 30 20 55% 32 76.61 0.0
31 12:55 W 7 16.09 Fair CLR 30 21 59% 33 76.61 0.0
31 12:35 Calm 16.09 Fair CLR 30 20 55% 32 76.63 0.0
31 12:15 Calm 16.09 Fair CLR 30 21 59% 33 76.63 0.0
31 11:55 SW 7 16.09 Partly Cloudy SCT027 29 21 62% 31 76.63 0.0
31 11:35 W 6 11.27 Partly Cloudy SCT023 28 21 66% 30 76.66 0.0
31 11:15 W 7 16.09 Mostly Cloudy BKN023 28 21 66% 30 76.66 0.0
31 10:55 SW 6 16.09 Partly Cloudy SCT019 27 21 70% 29 76.66 0.0
31 10:35 SW 6 11.27 Fair CLR 27 21 70% 29 76.66 0.0
31 10:15 W 6 16.09 Fair CLR 27 22 74% 29 76.66 0.0
31 09:55 W 6 16.09 Fair CLR 26 22 79% 28 76.66 0.0
31 09:35 W 6 16.09 Fair CLR 26 22 79% 28 76.63 0.0
31 09:15 Calm 16.09 Fair CLR 25 21 79% 26 76.63 0.0
31 08:55 Calm 16.09 Fair CLR 23 21 89% 76.63 0.0
31 08:35 Calm 16.09 Fair CLR 22 21 94% 76.63 0.0
31 08:15 Calm 16.09 Fair CLR 21 21 100% 76.63 0.0
31 07:55 Calm 11.27 Fair CLR 21 20 94% 76.63 0.0
31 07:35 Calm 11.27 Fair CLR 20 20 100% 76.63 0.0
31 07:15 Calm 8.05 Fog/Mist CLR 20 19 94% 76.63 0.0
31 06:55 Calm 11.27 Fair CLR 20 19 94% 76.61 0.0
31 06:35 Calm 11.27 Fair CLR 20 19 94% 76.58 0.0
31 06:15 Calm 8.05 Fog/Mist CLR 20 20 100% 76.58 0.0
31 05:55 Calm 11.27 Fair CLR 20 20 100% 76.58 0.0
31 05:35 Calm 11.27 Fair CLR 21 20 94% 76.58 0.0
31 05:15 Calm 11.27 Fair CLR 20 20 100% 76.58 0.0
31 04:55 Calm 16.09 Fair CLR 21 20 94% 76.58 0.0
31 04:35 Calm 11.27 Fair CLR 21 20 94% 76.56 0.0
31 04:15 Calm 11.27 Fair CLR 21 20 94% 76.58 0.0
31 03:55 Calm 11.27 Fair CLR 21 20 94% 76.56 0.0
31 03:35 Calm 16.09 Fair CLR 21 20 94% 76.56 0.0
31 03:15 Calm 16.09 Fair CLR 21 20 94% 76.56 0.0
31 02:55 Calm 11.27 Fair CLR 21 20 94% 76.58 0.0
31 02:35 Calm 11.27 Fair CLR 21 20 94% 76.56 0.0
31 02:15 Calm 16.09 Fair CLR 21 21 100% 76.56 0.0
31 01:55 Calm 11.27 Fair CLR 21 20 94% 76.58 0.0
31 01:15 Calm 11.27 Fair CLR 21 21 100% 76.61 0.0
31 00:55 Calm 11.27 Fair CLR 21 21 100% 76.58 0.0
31 00:35 Calm 16.09 Fair CLR 22 21 94% 76.58 0.0
31 00:15 Calm 11.27 Fair CLR 22 21 94% 76.61 0.0
30 23:55 Calm 16.09 Fair CLR 22 21 94% 76.61 0.0
30 23:35 Calm 16.09 Fair CLR 22 21 94% 76.61 0.0
30 23:15 Calm 16.09 Fair CLR 22 21 94% 76.61 0.0
30 22:55 Calm 16.09 Fair CLR 22 21 94% 76.61 0.0
30 22:35 Calm 11.27 Fair CLR 23 21 89% 76.61 0.0
30 22:15 Calm 16.09 Fair CLR 23 21 89% 76.61 0.0
30 21:55 Calm 16.09 Fair CLR 23 21 89% 76.61 0.0
30 21:35 Calm 16.09 Fair CLR 23 21 89% 76.58 0.0
30 21:15 Calm 16.09 Fair CLR 25 21 79% 26 76.58 0.0
30 20:55 Calm 16.09 Fair CLR 25 21 79% 26 76.58 0.0
30 20:35 Calm 16.09 Fair CLR 26 21 74% 27 76.56 0.0
30 20:15 Calm 16.09 Fair CLR 26 21 74% 27 76.53 0.0
30 19:55 SE 6 11.27 Fair CLR 27 21 70% 29 76.53 0.0
30 19:35 Calm 16.09 Fair CLR 28 21 66% 30 76.5 0.0
30 19:15 SE 6 16.09 Fair CLR 28 20 62% 30 76.53 0.0
30 18:55 SE 7 16.09 Fair CLR 30 20 55% 32 76.53 0.0
30 18:35 E 6 16.09 Fair CLR 30 20 55% 32 76.5 0.0
30 18:15 E 7 16.09 Fair CLR 30 19 52% 31 76.5 0.0
30 17:55 E 6 16.09 Fair CLR 30 19 52% 31 76.5 0.0
30 17:35 E 7 11.27 Partly Cloudy SCT039 SCT048 30 20 55% 32 76.53 0.0
30 17:15 E 7 16.09 Fair CLR 31 20 52% 33 76.53 0.0
30 16:55 SE 6 16.09 Fair CLR 30 19 52% 31 76.53 0.0
30 16:35 NE 7 16.09 Partly Cloudy SCT039 SCT047 30 20 55% 32 76.53 0.0
30 16:15 Calm 16.09 Partly Cloudy SCT037 30 20 55% 32 76.53 0.0
30 15:55 N 11 16.09 Partly Cloudy SCT037 30 20 55% 32 76.58 0.0
30 15:35 E 9 16.09 Fair CLR 30 20 55% 32 76.58 0.0
30 15:15 E 11 16.09 Partly Cloudy SCT038 SCT050 SCT055 30 20 55% 32 76.61 0.0
30 14:55 NE 9 16.09 Partly Cloudy SCT036 30 20 55% 32 76.63 0.0
30 14:35 N 7 16.09 Partly Cloudy SCT033 SCT041 SCT055 28 20 62% 30 76.66 0.0
30 14:15 Calm 11.27 Partly Cloudy SCT031 SCT055 28 19 58% 29 76.68 0.0
30 13:55 NE 7 16.09 Mostly Cloudy BKN033 BKN055 28 20 62% 30 76.71 0.0
30 13:35 Calm 16.09 Mostly Cloudy SCT025 BKN035 27 20 66% 29 76.73 0.0
30 13:15 NE 9 16.09 Partly Cloudy SCT025 SCT032 SCT039 28 21 66% 30 76.73 0.0
30 12:55 E 11 16.09 Mostly Cloudy SCT032 SCT043 BKN050 28 21 66% 30 76.76 0.0
30 12:35 N 7 16.09 Mostly Cloudy SCT022 SCT031 BKN042 26 20 70% 27 76.76 0.0
30 12:15 N 6 16.09 Mostly Cloudy SCT019 BKN026 BKN031 26 21 74% 27 76.78 0.0
30 11:55 Calm 11.27 Mostly Cloudy SCT017 BKN026 BKN031 26 21 74% 27 76.78 0.0
30 11:35 N 7 16.09 Overcast SCT017 OVC025 26 21 74% 27 76.81 0.0
30 11:15 Calm 11.27 Overcast SCT011 OVC019 25 21 79% 26 76.81 0.0
30 10:55 E 6 16.09 Overcast OVC011 25 21 79% 26 76.81 0.0
30 10:35 E 6 16.09 Overcast OVC009 24 21 83% 24 76.78 0.0
30 10:15 E 6 16.09 Overcast BKN006 OVC011 23 21 89% 76.78 0.0
30 09:55 NE 7 8.05 Fog/Mist OVC006 23 22 94% 76.78 0.0
30 09:35 NE 7 6.44 Fog/Mist OVC004 22 21 94% 76.78 0.0
30 09:15 E 6 4.83 Fog/Mist OVC004 22 21 94% 76.78 0.0
30 08:55 Calm 4.02 Fog/Mist OVC004 22 21 94% 76.78 0.0
30 08:35 E 6 8.05 Fog/Mist OVC004 22 21 94% 76.78 0.0
30 08:15 E 9 8.05 Fog/Mist OVC004 22 21 94% 76.78 0.0
30 07:55 Calm 11.27 Overcast OVC004 22 21 94% 76.76 0.0
30 07:35 NE 9 6.44 Fog/Mist OVC004 22 21 94% 76.76 0.0
30 07:15 NE 7 8.05 Fog/Mist OVC004 22 21 94% 76.73 0.0
30 06:55 NE 6 8.05 Fog/Mist BKN004 22 21 94% 76.71 0.0
30 06:35 NE 6 8.05 Fog/Mist CLR 21 20 94% 76.68 0.0
30 06:15 NE 6 8.05 Fog/Mist CLR 21 20 94% 76.66 0.0
30 05:55 Calm 11.27 Fair CLR 21 21 100% 76.63 0.0
30 05:35 NE 6 11.27 Mostly Cloudy BKN044 22 21 94% 76.66 0.0
30 05:15 Calm 11.27 Overcast OVC042 21 21 100% 76.66 0.0
30 04:55 Calm 11.27 Mostly Cloudy BKN042 21 21 100% 76.66 0.0
30 04:35 Calm 11.27 Fair CLR 22 21 94% 76.66 0.0
30 04:15 Calm 11.27 Partly Cloudy SCT018 SCT032 22 21 94% 76.66 0.0
30 03:55 Calm 16.09 Mostly Cloudy BKN030 22 21 94% 76.66 0.0
30 03:35 Calm 11.27 Partly Cloudy SCT028 22 21 94% 76.66 0.0
30 03:15 Calm 16.09 Partly Cloudy SCT028 22 21 94% 76.66 0.0
30 02:55 Calm 11.27 Partly Cloudy SCT028 22 21 94% 76.66 0.0
30 02:35 Calm 16.09 Partly Cloudy SCT027 SCT032 22 21 94% 76.66 0.0
30 02:15 Calm 11.27 Mostly Cloudy BKN027 BKN033 22 21 94% 76.66 0.0
Date Time (edt) Wind (kph) Vis. (km) Weather Sky Cond. Air Dwpt Max. Min. Relative Humidity Wind Chill (°C) Heat Index (°C) altimeter (cm) sea level (mb) 1 hr 3 hr 6 hr
6 hour
Temperature (ºC) Pressure Precipitation (cm)